sensor_id;sensor_type;location;lat;lon;timestamp;pressure;altitude;pressure_sealevel;temperature;humidity
61537;BME280;48695;53.480;-6.300;2023-03-21T00:00:17;99758.63;;;12.86;71.64
61537;BME280;48695;53.480;-6.300;2023-03-21T00:02:43;99771.94;;;12.82;72.05
61537;BME280;48695;53.480;-6.300;2023-03-21T00:05:08;99742.97;;;12.67;71.50
61537;BME280;48695;53.480;-6.300;2023-03-21T00:07:34;99774.78;;;12.77;71.80
61537;BME280;48695;53.480;-6.300;2023-03-21T00:09:59;99775.78;;;12.75;71.74
61537;BME280;48695;53.480;-6.300;2023-03-21T00:12:25;99767.16;;;12.72;72.21
61537;BME280;48695;53.480;-6.300;2023-03-21T00:14:51;99767.28;;;12.69;71.98
61537;BME280;48695;53.480;-6.300;2023-03-21T00:17:18;99774.22;;;12.70;71.80
61537;BME280;48695;53.480;-6.300;2023-03-21T00:19:46;99761.22;;;12.69;71.76
61537;BME280;48695;53.480;-6.300;2023-03-21T00:22:13;99751.56;;;12.69;71.63
61537;BME280;48695;53.480;-6.300;2023-03-21T00:24:38;99746.34;;;12.69;71.02
61537;BME280;48695;53.480;-6.300;2023-03-21T00:27:04;99746.34;;;12.69;71.27
61537;BME280;48695;53.480;-6.300;2023-03-21T00:29:29;99735.94;;;12.68;70.80
61537;BME280;48695;53.480;-6.300;2023-03-21T00:31:55;99724.63;;;12.67;70.41
61537;BME280;48695;53.480;-6.300;2023-03-21T00:34:20;99729.22;;;12.62;70.63
61537;BME280;48695;53.480;-6.300;2023-03-21T00:36:45;99730.13;;;12.61;69.98
61537;BME280;48695;53.480;-6.300;2023-03-21T00:39:11;99730.91;;;12.63;70.68
61537;BME280;48695;53.480;-6.300;2023-03-21T00:41:38;99728.34;;;12.62;70.88
61537;BME280;48695;53.480;-6.300;2023-03-21T00:44:04;99708.47;;;12.58;70.51
61537;BME280;48695;53.480;-6.300;2023-03-21T00:46:29;99737.13;;;12.61;70.55
61537;BME280;48695;53.480;-6.300;2023-03-21T00:48:55;99733.66;;;12.60;70.65
61537;BME280;48695;53.480;-6.300;2023-03-21T00:51:22;99649.91;;;12.23;70.81
61537;BME280;48695;53.480;-6.300;2023-03-21T00:53:55;99685.47;;;12.45;71.03
61537;BME280;48695;53.480;-6.300;2023-03-21T00:56:20;99718.59;;;12.65;70.75
61537;BME280;48695;53.480;-6.300;2023-03-21T00:58:46;99707.34;;;12.63;70.70
61537;BME280;48695;53.480;-6.300;2023-03-21T01:01:11;99708.09;;;12.65;70.78
61537;BME280;48695;53.480;-6.300;2023-03-21T01:03:37;99705.28;;;12.70;70.66
61537;BME280;48695;53.480;-6.300;2023-03-21T01:06:09;99702.56;;;12.71;70.43
61537;BME280;48695;53.480;-6.300;2023-03-21T01:08:40;99690.28;;;12.73;70.28
61537;BME280;48695;53.480;-6.300;2023-03-21T01:11:12;99690.19;;;12.75;70.32
61537;BME280;48695;53.480;-6.300;2023-03-21T01:13:38;99686.72;;;12.75;70.79
61537;BME280;48695;53.480;-6.300;2023-03-21T01:16:05;99690.94;;;12.77;70.24
61537;BME280;48695;53.480;-6.300;2023-03-21T01:18:32;99675.41;;;12.74;70.77
61537;BME280;48695;53.480;-6.300;2023-03-21T01:20:59;99677.81;;;12.79;71.01
61537;BME280;48695;53.480;-6.300;2023-03-21T01:23:27;99670.78;;;12.79;70.90
61537;BME280;48695;53.480;-6.300;2023-03-21T01:25:54;99670.69;;;12.81;71.25
61537;BME280;48695;53.480;-6.300;2023-03-21T01:28:19;99662.13;;;12.77;70.96
61537;BME280;48695;53.480;-6.300;2023-03-21T01:30:46;99661.03;;;12.83;70.93
61537;BME280;48695;53.480;-6.300;2023-03-21T01:33:13;99655.69;;;12.84;71.32
61537;BME280;48695;53.480;-6.300;2023-03-21T01:35:39;99655.59;;;12.86;71.22
61537;BME280;48695;53.480;-6.300;2023-03-21T01:38:04;99645.91;;;12.88;70.97
61537;BME280;48695;53.480;-6.300;2023-03-21T01:40:30;99647.63;;;12.89;71.02
61537;BME280;48695;53.480;-6.300;2023-03-21T01:42:55;99646.59;;;12.91;70.93
61537;BME280;48695;53.480;-6.300;2023-03-21T01:48:24;99638.50;;;12.96;71.12
61537;BME280;48695;53.480;-6.300;2023-03-21T01:50:51;99633.28;;;12.96;70.88
61537;BME280;48695;53.480;-6.300;2023-03-21T01:53:19;99619.41;;;12.94;70.56
61537;BME280;48695;53.480;-6.300;2023-03-21T01:55:46;99627.88;;;12.99;70.60
61537;BME280;48695;53.480;-6.300;2023-03-21T01:58:15;99627.81;;;13.01;70.49
61537;BME280;48695;53.480;-6.300;2023-03-21T02:00:44;99623.41;;;13.01;70.55
61537;BME280;48695;53.480;-6.300;2023-03-21T02:03:09;99617.94;;;13.06;69.90
61537;BME280;48695;53.480;-6.300;2023-03-21T02:08:32;99596.75;;;12.93;70.20
61537;BME280;48695;53.480;-6.300;2023-03-21T02:10:57;99601.91;;;12.94;70.14
61537;BME280;48695;53.480;-6.300;2023-03-21T02:13:24;99595.03;;;12.92;70.82
61537;BME280;48695;53.480;-6.300;2023-03-21T02:16:05;99594.19;;;12.91;70.22
61537;BME280;48695;53.480;-6.300;2023-03-21T02:18:53;99584.72;;;12.89;70.60
61537;BME280;48695;53.480;-6.300;2023-03-21T02:32:36;99563.38;;;12.79;71.07
61537;BME280;48695;53.480;-6.300;2023-03-21T02:38:50;99557.44;;;12.76;70.79
61537;BME280;48695;53.480;-6.300;2023-03-21T02:41:18;99559.13;;;12.77;70.58
61537;BME280;48695;53.480;-6.300;2023-03-21T02:43:55;99552.19;;;12.76;71.03
61537;BME280;48695;53.480;-6.300;2023-03-21T02:49:38;99534.16;;;12.69;70.67
61537;BME280;48695;53.480;-6.300;2023-03-21T02:52:08;99541.88;;;12.72;70.91
61537;BME280;48695;53.480;-6.300;2023-03-21T02:54:36;99541.88;;;12.72;71.10
61537;BME280;48695;53.480;-6.300;2023-03-21T02:57:03;99522.94;;;12.67;71.32
61537;BME280;48695;53.480;-6.300;2023-03-21T02:59:29;99528.00;;;12.70;70.79
61537;BME280;48695;53.480;-6.300;2023-03-21T03:01:55;99517.59;;;12.69;71.15
61537;BME280;48695;53.480;-6.300;2023-03-21T03:04:25;99517.38;;;12.73;70.90
61537;BME280;48695;53.480;-6.300;2023-03-21T03:09:44;99511.97;;;12.77;71.14
61537;BME280;48695;53.480;-6.300;2023-03-21T03:18:10;99504.06;;;12.78;70.51
61537;BME280;48695;53.480;-6.300;2023-03-21T03:20:52;99504.97;;;12.77;71.30
61537;BME280;48695;53.480;-6.300;2023-03-21T03:23:33;99501.50;;;12.77;71.03
61537;BME280;48695;53.480;-6.300;2023-03-21T03:26:10;99494.56;;;12.76;71.16
61537;BME280;48695;53.480;-6.300;2023-03-21T03:28:42;99484.25;;;12.72;72.00
61537;BME280;48695;53.480;-6.300;2023-03-21T03:31:12;99486.00;;;12.72;72.08
61537;BME280;48695;53.480;-6.300;2023-03-21T03:33:43;99478.16;;;12.72;71.86
61537;BME280;48695;53.480;-6.300;2023-03-21T03:36:12;99473.09;;;12.69;72.23
61537;BME280;48695;53.480;-6.300;2023-03-21T03:38:40;99476.53;;;12.69;71.82
61537;BME280;48695;53.480;-6.300;2023-03-21T03:41:11;99477.31;;;12.71;71.71
61537;BME280;48695;53.480;-6.300;2023-03-21T03:43:44;99465.97;;;12.71;71.83
61537;BME280;48695;53.480;-6.300;2023-03-21T03:46:17;99470.22;;;12.73;72.11
61537;BME280;48695;53.480;-6.300;2023-03-21T03:48:48;99465.00;;;12.73;72.37
61537;BME280;48695;53.480;-6.300;2023-03-21T03:51:21;99458.81;;;12.75;72.77
61537;BME280;48695;53.480;-6.300;2023-03-21T03:53:57;99463.13;;;12.76;72.54
61537;BME280;48695;53.480;-6.300;2023-03-21T03:56:24;99454.50;;;12.73;72.52
61537;BME280;48695;53.480;-6.300;2023-03-21T03:58:50;99459.75;;;12.73;72.27
61537;BME280;48695;53.480;-6.300;2023-03-21T04:01:16;99445.72;;;12.75;72.89
61537;BME280;48695;53.480;-6.300;2023-03-21T04:03:45;99436.19;;;12.73;72.79
61537;BME280;48695;53.480;-6.300;2023-03-21T04:06:11;99441.25;;;12.77;72.63
61537;BME280;48695;53.480;-6.300;2023-03-21T04:08:37;99440.41;;;12.76;72.08
61537;BME280;48695;53.480;-6.300;2023-03-21T04:11:03;99432.53;;;12.76;72.55
61537;BME280;48695;53.480;-6.300;2023-03-21T04:13:29;99428.16;;;12.77;72.22
61537;BME280;48695;53.480;-6.300;2023-03-21T04:15:54;99424.69;;;12.76;72.29
61537;BME280;48695;53.480;-6.300;2023-03-21T04:18:21;99421.22;;;12.76;72.80
61537;BME280;48695;53.480;-6.300;2023-03-21T04:20:48;99411.66;;;12.75;72.80
61537;BME280;48695;53.480;-6.300;2023-03-21T04:23:15;99413.34;;;12.76;72.84
61537;BME280;48695;53.480;-6.300;2023-03-21T04:25:41;99424.69;;;12.76;72.81
61537;BME280;48695;53.480;-6.300;2023-03-21T04:28:07;99408.31;;;12.72;72.26
61537;BME280;48695;53.480;-6.300;2023-03-21T04:30:32;99404.66;;;12.75;72.70
61537;BME280;48695;53.480;-6.300;2023-03-21T04:32:58;99408.22;;;12.74;72.62
61537;BME280;48695;53.480;-6.300;2023-03-21T04:35:25;99394.31;;;12.72;72.45
61537;BME280;48695;53.480;-6.300;2023-03-21T04:37:51;99390.97;;;12.70;72.74
61537;BME280;48695;53.480;-6.300;2023-03-21T04:40:17;99397.88;;;12.71;73.18
61537;BME280;48695;53.480;-6.300;2023-03-21T04:42:43;99394.41;;;12.70;73.12
61537;BME280;48695;53.480;-6.300;2023-03-21T04:45:09;99380.81;;;12.64;72.66
61537;BME280;48695;53.480;-6.300;2023-03-21T04:47:35;99387.50;;;12.69;73.19
61537;BME280;48695;53.480;-6.300;2023-03-21T04:50:00;99377.09;;;12.68;72.91
61537;BME280;48695;53.480;-6.300;2023-03-21T04:52:26;99377.84;;;12.70;73.55
61537;BME280;48695;53.480;-6.300;2023-03-21T04:54:52;99381.31;;;12.70;73.03
61537;BME280;48695;53.480;-6.300;2023-03-21T04:57:18;99374.88;;;12.60;73.47
61537;BME280;48695;53.480;-6.300;2023-03-21T04:59:43;99388.25;;;12.71;73.24
61537;BME280;48695;53.480;-6.300;2023-03-21T05:02:09;99388.25;;;12.71;73.31
61537;BME280;48695;53.480;-6.300;2023-03-21T05:04:34;99398.66;;;12.73;73.36
61537;BME280;48695;53.480;-6.300;2023-03-21T05:07:00;99393.34;;;12.75;73.67
61537;BME280;48695;53.480;-6.300;2023-03-21T05:09:25;99383.00;;;12.71;73.32
61537;BME280;48695;53.480;-6.300;2023-03-21T05:11:51;99390.63;;;12.76;73.59
61537;BME280;48695;53.480;-6.300;2023-03-21T05:14:22;99380.84;;;12.80;73.36
61537;BME280;48695;53.480;-6.300;2023-03-21T05:16:49;99377.38;;;12.79;73.93
61537;BME280;48695;53.480;-6.300;2023-03-21T05:19:22;99374.66;;;12.81;73.93
61537;BME280;48695;53.480;-6.300;2023-03-21T05:21:48;99366.81;;;12.81;74.01
61537;BME280;48695;53.480;-6.300;2023-03-21T05:24:17;99369.28;;;12.84;73.73
61537;BME280;48695;53.480;-6.300;2023-03-21T05:26:43;99349.75;;;12.73;73.84
61537;BME280;48695;53.480;-6.300;2023-03-21T05:29:15;99362.25;;;12.84;73.71
61537;BME280;48695;53.480;-6.300;2023-03-21T05:31:41;99358.00;;;12.82;74.01
61537;BME280;48695;53.480;-6.300;2023-03-21T05:34:06;99367.31;;;12.87;74.00
61537;BME280;48695;53.480;-6.300;2023-03-21T05:36:31;99369.03;;;12.88;73.87
61537;BME280;48695;53.480;-6.300;2023-03-21T05:39:00;99371.56;;;12.90;74.29
61537;BME280;48695;53.480;-6.300;2023-03-21T05:41:26;99364.47;;;12.92;74.27
61537;BME280;48695;53.480;-6.300;2023-03-21T05:43:51;99366.19;;;12.93;73.98
61537;BME280;48695;53.480;-6.300;2023-03-21T05:46:17;99361.78;;;12.93;73.77
61537;BME280;48695;53.480;-6.300;2023-03-21T05:48:42;99363.38;;;12.96;73.94
61537;BME280;48695;53.480;-6.300;2023-03-21T05:51:07;99366.00;;;12.96;73.78
61537;BME280;48695;53.480;-6.300;2023-03-21T05:53:33;99338.19;;;12.78;73.59
61537;BME280;48695;53.480;-6.300;2023-03-21T05:55:58;99381.56;;;12.99;73.04
61537;BME280;48695;53.480;-6.300;2023-03-21T05:58:24;99368.53;;;12.97;72.40
61537;BME280;48695;53.480;-6.300;2023-03-21T06:00:50;99373.84;;;12.96;72.71
61537;BME280;48695;53.480;-6.300;2023-03-21T06:03:15;99371.22;;;12.96;72.61
61537;BME280;48695;53.480;-6.300;2023-03-21T06:05:41;99373.84;;;12.96;72.12
61537;BME280;48695;53.480;-6.300;2023-03-21T06:08:06;99357.88;;;12.85;72.41
61537;BME280;48695;53.480;-6.300;2023-03-21T06:10:32;99369.69;;;12.92;72.19
61537;BME280;48695;53.480;-6.300;2023-03-21T06:12:57;99378.50;;;12.91;72.14
61537;BME280;48695;53.480;-6.300;2023-03-21T06:15:22;99383.91;;;12.88;71.86
61537;BME280;48695;53.480;-6.300;2023-03-21T06:17:49;99384.91;;;12.85;72.58
61537;BME280;48695;53.480;-6.300;2023-03-21T06:20:14;99376.53;;;12.79;72.33
61537;BME280;48695;53.480;-6.300;2023-03-21T06:22:39;99387.06;;;12.77;72.85
61537;BME280;48695;53.480;-6.300;2023-03-21T06:25:05;99391.97;;;12.67;72.56
61537;BME280;48695;53.480;-6.300;2023-03-21T06:27:34;99399.50;;;12.73;72.55
61537;BME280;48695;53.480;-6.300;2023-03-21T06:30:00;99412.75;;;12.70;72.76
61537;BME280;48695;53.480;-6.300;2023-03-21T06:32:26;99411.06;;;12.69;72.47
61537;BME280;48695;53.480;-6.300;2023-03-21T06:34:52;99403.28;;;12.68;72.02
61537;BME280;48695;53.480;-6.300;2023-03-21T06:37:17;99410.38;;;12.66;72.61
61537;BME280;48695;53.480;-6.300;2023-03-21T06:39:43;99417.56;;;12.62;72.68
61537;BME280;48695;53.480;-6.300;2023-03-21T06:42:09;99422.94;;;12.59;72.91
61537;BME280;48695;53.480;-6.300;2023-03-21T06:44:34;99411.84;;;12.54;72.34
61537;BME280;48695;53.480;-6.300;2023-03-21T06:47:00;99422.34;;;12.54;72.65
61537;BME280;48695;53.480;-6.300;2023-03-21T06:49:25;99409.88;;;12.42;72.96
61537;BME280;48695;53.480;-6.300;2023-03-21T06:51:51;99425.28;;;12.48;72.81
61537;BME280;48695;53.480;-6.300;2023-03-21T06:54:17;99432.34;;;12.46;72.68
61537;BME280;48695;53.480;-6.300;2023-03-21T06:56:43;99440.50;;;12.40;72.89
61537;BME280;48695;53.480;-6.300;2023-03-21T06:59:09;99437.03;;;12.39;72.62
61537;BME280;48695;53.480;-6.300;2023-03-21T07:01:34;99445.00;;;12.38;72.93
61537;BME280;48695;53.480;-6.300;2023-03-21T07:04:00;99441.56;;;12.36;72.92
61537;BME280;48695;53.480;-6.300;2023-03-21T07:06:26;99432.81;;;12.37;72.61
61537;BME280;48695;53.480;-6.300;2023-03-21T07:08:53;99425.25;;;12.31;72.59
61537;BME280;48695;53.480;-6.300;2023-03-21T07:11:20;99444.19;;;12.36;72.93
61537;BME280;48695;53.480;-6.300;2023-03-21T07:13:46;99450.28;;;12.36;72.66
61537;BME280;48695;53.480;-6.300;2023-03-21T07:16:13;99450.34;;;12.35;72.91
61537;BME280;48695;53.480;-6.300;2023-03-21T07:18:39;99454.75;;;12.34;73.22
61537;BME280;48695;53.480;-6.300;2023-03-21T07:21:04;99453.81;;;12.35;72.89
61537;BME280;48695;53.480;-6.300;2023-03-21T07:23:30;99455.59;;;12.35;72.93
61537;BME280;48695;53.480;-6.300;2023-03-21T07:25:55;99471.22;;;12.36;72.80
61537;BME280;48695;53.480;-6.300;2023-03-21T07:28:21;99467.63;;;12.39;73.11
61537;BME280;48695;53.480;-6.300;2023-03-21T07:30:55;99462.16;;;12.43;73.34
61537;BME280;48695;53.480;-6.300;2023-03-21T07:33:21;99471.78;;;12.43;73.35
61537;BME280;48695;53.480;-6.300;2023-03-21T07:35:49;99478.72;;;12.44;73.35
61537;BME280;48695;53.480;-6.300;2023-03-21T07:38:14;99481.19;;;12.47;73.37
61537;BME280;48695;53.480;-6.300;2023-03-21T07:40:41;99487.19;;;12.49;73.20
61537;BME280;48695;53.480;-6.300;2023-03-21T07:43:06;99480.09;;;12.51;73.07
61537;BME280;48695;53.480;-6.300;2023-03-21T07:45:32;99490.41;;;12.54;73.41
61537;BME280;48695;53.480;-6.300;2023-03-21T07:47:57;99488.56;;;12.56;73.27
61537;BME280;48695;53.480;-6.300;2023-03-21T07:50:22;99483.31;;;12.56;73.11
61537;BME280;48695;53.480;-6.300;2023-03-21T07:52:48;99490.94;;;12.61;73.01
61537;BME280;48695;53.480;-6.300;2023-03-21T07:55:13;99498.75;;;12.62;72.70
61537;BME280;48695;53.480;-6.300;2023-03-21T07:57:41;99501.06;;;12.68;72.29
61537;BME280;48695;53.480;-6.300;2023-03-21T08:00:07;99505.50;;;12.66;72.52
61537;BME280;48695;53.480;-6.300;2023-03-21T08:02:33;99526.31;;;12.69;72.31
61537;BME280;48695;53.480;-6.300;2023-03-21T08:04:58;99542.03;;;12.69;72.61
61537;BME280;48695;53.480;-6.300;2023-03-21T08:07:24;99524.75;;;12.65;73.15
61537;BME280;48695;53.480;-6.300;2023-03-21T08:09:51;99518.81;;;12.62;72.81
61537;BME280;48695;53.480;-6.300;2023-03-21T08:12:16;99510.75;;;12.49;73.03
61537;BME280;48695;53.480;-6.300;2023-03-21T08:14:42;99537.31;;;12.59;72.80
61537;BME280;48695;53.480;-6.300;2023-03-21T08:17:07;99532.19;;;12.57;73.00
61537;BME280;48695;53.480;-6.300;2023-03-21T08:19:34;99513.50;;;12.46;73.63
61537;BME280;48695;53.480;-6.300;2023-03-21T08:22:00;99515.53;;;12.58;74.03
61537;BME280;48695;53.480;-6.300;2023-03-21T08:24:26;99512.69;;;12.63;73.43
61537;BME280;48695;53.480;-6.300;2023-03-21T08:26:52;99508.91;;;12.68;73.39
61537;BME280;48695;53.480;-6.300;2023-03-21T08:29:18;99510.47;;;12.72;73.46
61537;BME280;48695;53.480;-6.300;2023-03-21T08:31:43;99499.81;;;12.76;73.00
61537;BME280;48695;53.480;-6.300;2023-03-21T08:34:08;99505.75;;;12.79;72.97
61537;BME280;48695;53.480;-6.300;2023-03-21T08:36:35;99503.88;;;12.81;72.87
61537;BME280;48695;53.480;-6.300;2023-03-21T08:39:02;99508.13;;;12.84;72.73
61537;BME280;48695;53.480;-6.300;2023-03-21T08:41:34;99510.44;;;12.90;72.55
61537;BME280;48695;53.480;-6.300;2023-03-21T08:44:01;99519.28;;;12.87;71.99
61537;BME280;48695;53.480;-6.300;2023-03-21T08:46:27;99524.59;;;12.86;72.51
61537;BME280;48695;53.480;-6.300;2023-03-21T08:48:53;99520.16;;;12.88;72.10
61537;BME280;48695;53.480;-6.300;2023-03-21T08:51:19;99521.84;;;12.89;72.18
61537;BME280;48695;53.480;-6.300;2023-03-21T08:53:44;99511.38;;;12.89;71.83
61537;BME280;48695;53.480;-6.300;2023-03-21T08:56:10;99516.59;;;12.89;71.21
61537;BME280;48695;53.480;-6.300;2023-03-21T08:58:36;99519.22;;;12.89;71.75
61537;BME280;48695;53.480;-6.300;2023-03-21T09:01:02;99527.69;;;12.94;71.62
61537;BME280;48695;53.480;-6.300;2023-03-21T09:03:28;99521.53;;;12.95;71.28
61537;BME280;48695;53.480;-6.300;2023-03-21T09:05:55;99530.00;;;13.00;71.58
61537;BME280;48695;53.480;-6.300;2023-03-21T09:08:20;99533.97;;;13.07;71.16
61537;BME280;48695;53.480;-6.300;2023-03-21T09:10:56;99547.41;;;13.18;71.64
61537;BME280;48695;53.480;-6.300;2023-03-21T09:13:22;99518.56;;;13.18;69.73
61537;BME280;48695;53.480;-6.300;2023-03-21T09:15:48;99542.81;;;13.23;69.38
61537;BME280;48695;53.480;-6.300;2023-03-21T09:18:15;99537.06;;;13.33;70.43
61537;BME280;48695;53.480;-6.300;2023-03-21T09:20:43;99547.75;;;13.45;70.17
61537;BME280;48695;53.480;-6.300;2023-03-21T09:23:11;99539.16;;;13.59;70.41
61537;BME280;48695;53.480;-6.300;2023-03-21T09:25:38;99537.56;;;13.72;69.71
61537;BME280;48695;53.480;-6.300;2023-03-21T09:28:04;99544.59;;;13.88;69.92
61537;BME280;48695;53.480;-6.300;2023-03-21T09:30:31;99537.59;;;14.04;69.74
61537;BME280;48695;53.480;-6.300;2023-03-21T09:33:04;99536.13;;;14.30;69.05
61537;BME280;48695;53.480;-6.300;2023-03-21T09:35:37;99530.06;;;14.44;68.23
61537;BME280;48695;53.480;-6.300;2023-03-21T09:38:03;99536.44;;;14.56;68.17
61537;BME280;48695;53.480;-6.300;2023-03-21T09:43:50;99528.56;;;14.86;67.62
61537;BME280;48695;53.480;-6.300;2023-03-21T09:46:50;99530.03;;;14.90;67.17
61537;BME280;48695;53.480;-6.300;2023-03-21T09:49:21;99526.50;;;14.91;65.82
61537;BME280;48695;53.480;-6.300;2023-03-21T09:51:49;99523.09;;;14.89;65.05
61537;BME280;48695;53.480;-6.300;2023-03-21T09:56:52;99529.78;;;14.94;65.37
61537;BME280;48695;53.480;-6.300;2023-03-21T09:59:37;99524.25;;;14.99;65.41
61537;BME280;48695;53.480;-6.300;2023-03-21T10:02:34;99537.97;;;15.04;66.29
61537;BME280;48695;53.480;-6.300;2023-03-21T10:05:02;99514.41;;;15.02;65.17
61537;BME280;48695;53.480;-6.300;2023-03-21T10:07:38;99523.53;;;15.11;65.25
61537;BME280;48695;53.480;-6.300;2023-03-21T10:10:09;99521.81;;;15.10;64.30
61537;BME280;48695;53.480;-6.300;2023-03-21T10:12:37;99445.91;;;14.61;64.77
61537;BME280;48695;53.480;-6.300;2023-03-21T10:15:02;99519.75;;;15.15;64.13
61537;BME280;48695;53.480;-6.300;2023-03-21T10:17:38;99525.50;;;15.22;64.73
61537;BME280;48695;53.480;-6.300;2023-03-21T10:22:36;99516.78;;;15.21;63.51
61537;BME280;48695;53.480;-6.300;2023-03-21T10:25:03;99489.91;;;15.16;63.61
61537;BME280;48695;53.480;-6.300;2023-03-21T10:27:30;99511.88;;;15.29;64.10
61537;BME280;48695;53.480;-6.300;2023-03-21T10:29:57;99504.75;;;15.31;63.27
61537;BME280;48695;53.480;-6.300;2023-03-21T10:32:25;99493.19;;;15.34;63.44
61537;BME280;48695;53.480;-6.300;2023-03-21T10:34:54;99502.47;;;15.40;63.75
61537;BME280;48695;53.480;-6.300;2023-03-21T10:37:21;99507.38;;;15.46;64.04
61537;BME280;48695;53.480;-6.300;2023-03-21T10:39:50;99501.94;;;15.63;63.83
61537;BME280;48695;53.480;-6.300;2023-03-21T10:42:28;99508.31;;;15.88;64.64
61537;BME280;48695;53.480;-6.300;2023-03-21T10:44:56;99501.84;;;16.06;62.13
61537;BME280;48695;53.480;-6.300;2023-03-21T10:47:31;99500.25;;;16.30;62.05
61537;BME280;48695;53.480;-6.300;2023-03-21T10:50:05;99517.50;;;16.49;61.95
61537;BME280;48695;53.480;-6.300;2023-03-21T10:52:31;99504.09;;;16.52;60.10
61537;BME280;48695;53.480;-6.300;2023-03-21T10:57:40;99497.81;;;16.67;59.77
61537;BME280;48695;53.480;-6.300;2023-03-21T11:00:07;99504.72;;;16.82;59.90
61537;BME280;48695;53.480;-6.300;2023-03-21T11:02:41;99496.28;;;17.03;59.96
61537;BME280;48695;53.480;-6.300;2023-03-21T11:05:25;99502.75;;;17.24;60.59
61537;BME280;48695;53.480;-6.300;2023-03-21T11:07:57;99503.38;;;17.41;59.90
61537;BME280;48695;53.480;-6.300;2023-03-21T11:10:33;99506.59;;;17.57;59.13
61537;BME280;48695;53.480;-6.300;2023-03-21T11:13:05;99528.34;;;17.73;59.30
61537;BME280;48695;53.480;-6.300;2023-03-21T11:15:37;99511.13;;;17.80;57.20
61537;BME280;48695;53.480;-6.300;2023-03-21T11:18:20;99498.44;;;17.85;58.18
61537;BME280;48695;53.480;-6.300;2023-03-21T11:20:57;99512.16;;;17.91;56.41
61537;BME280;48695;53.480;-6.300;2023-03-21T11:23:28;99520.81;;;17.93;57.03
61537;BME280;48695;53.480;-6.300;2023-03-21T11:25:55;99530.88;;;17.87;56.61
61537;BME280;48695;53.480;-6.300;2023-03-21T11:28:24;99504.56;;;17.86;56.62
61537;BME280;48695;53.480;-6.300;2023-03-21T11:30:56;99505.63;;;17.83;56.71
61537;BME280;48695;53.480;-6.300;2023-03-21T11:33:43;99491.59;;;18.07;58.87
61537;BME280;48695;53.480;-6.300;2023-03-21T11:38:42;99516.13;;;18.33;54.79
61537;BME280;48695;53.480;-6.300;2023-03-21T11:41:07;99545.16;;;18.46;55.30
61537;BME280;48695;53.480;-6.300;2023-03-21T11:43:37;99526.72;;;18.44;55.19
61537;BME280;48695;53.480;-6.300;2023-03-21T11:48:28;99525.00;;;18.08;58.52
61537;BME280;48695;53.480;-6.300;2023-03-21T11:51:03;99523.75;;;18.01;58.37
61537;BME280;48695;53.480;-6.300;2023-03-21T11:53:54;99523.19;;;17.84;58.00
61537;BME280;48695;53.480;-6.300;2023-03-21T11:56:31;99527.19;;;17.64;59.31
61537;BME280;48695;53.480;-6.300;2023-03-21T12:04:55;99533.03;;;17.31;60.43
61537;BME280;48695;53.480;-6.300;2023-03-21T12:21:22;99500.78;;;17.77;58.25
61537;BME280;48695;53.480;-6.300;2023-03-21T12:26:30;99514.19;;;17.87;57.92
61537;BME280;48695;53.480;-6.300;2023-03-21T12:32:09;99505.72;;;17.95;56.40
61537;BME280;48695;53.480;-6.300;2023-03-21T12:45:49;99507.47;;;18.07;52.90
61537;BME280;48695;53.480;-6.300;2023-03-21T12:48:40;99460.63;;;17.72;53.58
61537;BME280;48695;53.480;-6.300;2023-03-21T12:51:14;99503.06;;;17.95;53.49
61537;BME280;48695;53.480;-6.300;2023-03-21T12:54:01;99500.13;;;17.86;54.73
61537;BME280;48695;53.480;-6.300;2023-03-21T12:56:38;99490.97;;;17.79;53.90
61537;BME280;48695;53.480;-6.300;2023-03-21T12:59:14;99478.19;;;17.73;53.44
61537;BME280;48695;53.480;-6.300;2023-03-21T13:01:45;99469.00;;;17.66;53.05
61537;BME280;48695;53.480;-6.300;2023-03-21T13:04:50;99478.84;;;17.64;55.03
61537;BME280;48695;53.480;-6.300;2023-03-21T13:07:21;99470.59;;;17.56;54.54
61537;BME280;48695;53.480;-6.300;2023-03-21T13:09:49;99469.13;;;17.52;54.56
61537;BME280;48695;53.480;-6.300;2023-03-21T13:12:40;99459.34;;;17.54;55.26
61537;BME280;48695;53.480;-6.300;2023-03-21T13:23:07;99437.72;;;17.23;52.64
61537;BME280;48695;53.480;-6.300;2023-03-21T13:25:40;99431.91;;;17.18;53.77
61537;BME280;48695;53.480;-6.300;2023-03-21T13:30:43;99432.91;;;17.04;53.89
61537;BME280;48695;53.480;-6.300;2023-03-21T13:33:14;99400.94;;;16.96;54.39
61537;BME280;48695;53.480;-6.300;2023-03-21T13:35:43;99415.06;;;17.08;54.03
61537;BME280;48695;53.480;-6.300;2023-03-21T13:38:21;99405.25;;;17.10;54.96
61537;BME280;48695;53.480;-6.300;2023-03-21T13:41:00;99400.69;;;17.12;54.55
61537;BME280;48695;53.480;-6.300;2023-03-21T13:56:58;99357.91;;;17.32;53.12
61537;BME280;48695;53.480;-6.300;2023-03-21T13:59:43;99376.69;;;17.41;53.04
61537;BME280;48695;53.480;-6.300;2023-03-21T14:02:30;99362.94;;;17.48;52.84
61537;BME280;48695;53.480;-6.300;2023-03-21T14:05:00;99352.59;;;17.45;51.21
61537;BME280;48695;53.480;-6.300;2023-03-21T14:07:29;99353.84;;;17.52;51.18
61537;BME280;48695;53.480;-6.300;2023-03-21T14:10:01;99366.19;;;17.52;51.38
61537;BME280;48695;53.480;-6.300;2023-03-21T14:12:36;99355.13;;;17.47;51.83
61537;BME280;48695;53.480;-6.300;2023-03-21T14:15:07;99336.72;;;17.34;52.57
61537;BME280;48695;53.480;-6.300;2023-03-21T14:17:38;99360.66;;;17.44;51.24
61537;BME280;48695;53.480;-6.300;2023-03-21T14:20:24;99337.41;;;17.49;51.55
61537;BME280;48695;53.480;-6.300;2023-03-21T14:22:50;99319.97;;;17.46;51.48
61537;BME280;48695;53.480;-6.300;2023-03-21T14:25:19;99324.03;;;17.39;51.15
61537;BME280;48695;53.480;-6.300;2023-03-21T14:27:52;99330.47;;;17.35;51.35
61537;BME280;48695;53.480;-6.300;2023-03-21T14:32:48;99292.84;;;17.20;51.16
61537;BME280;48695;53.480;-6.300;2023-03-21T14:35:14;99288.75;;;17.16;51.40
61537;BME280;48695;53.480;-6.300;2023-03-21T14:37:43;99301.09;;;17.16;51.70
61537;BME280;48695;53.480;-6.300;2023-03-21T14:40:26;99320.63;;;17.13;51.61
61537;BME280;48695;53.480;-6.300;2023-03-21T14:42:53;99292.03;;;17.07;51.86
61537;BME280;48695;53.480;-6.300;2023-03-21T14:45:22;99283.75;;;17.00;52.39
61537;BME280;48695;53.480;-6.300;2023-03-21T14:48:15;99275.44;;;16.94;52.58
61537;BME280;48695;53.480;-6.300;2023-03-21T14:50:52;99265.53;;;16.84;52.95